sensor_id;sensor_type;location;lat;lon;timestamp;P1;durP1;ratioP1;P2;durP2;ratioP2
12567;SDS011;6349;50.904;6.136;2023-04-15T00:00:56;3.03;;;1.83;;
12567;SDS011;6349;50.904;6.136;2023-04-15T00:02:59;5.10;;;2.60;;
12567;SDS011;6349;50.904;6.136;2023-04-15T00:05:02;3.53;;;2.10;;
12567;SDS011;6349;50.904;6.136;2023-04-15T00:07:05;2.70;;;2.10;;
12567;SDS011;6349;50.904;6.136;2023-04-15T00:09:07;5.77;;;2.30;;
12567;SDS011;6349;50.904;6.136;2023-04-15T00:11:09;3.07;;;2.30;;
12567;SDS011;6349;50.904;6.136;2023-04-15T00:13:10;5.50;;;2.40;;
12567;SDS011;6349;50.904;6.136;2023-04-15T00:15:12;4.70;;;2.30;;
12567;SDS011;6349;50.904;6.136;2023-04-15T00:17:13;3.50;;;2.20;;
12567;SDS011;6349;50.904;6.136;2023-04-15T00:19:13;2.73;;;2.10;;
12567;SDS011;6349;50.904;6.136;2023-04-15T00:21:15;4.20;;;2.20;;
12567;SDS011;6349;50.904;6.136;2023-04-15T00:23:17;3.47;;;2.23;;
12567;SDS011;6349;50.904;6.136;2023-04-15T00:25:19;3.13;;;1.83;;
12567;SDS011;6349;50.904;6.136;2023-04-15T00:27:21;3.87;;;2.53;;
12567;SDS011;6349;50.904;6.136;2023-04-15T00:29:23;3.10;;;2.03;;
12567;SDS011;6349;50.904;6.136;2023-04-15T00:31:25;3.90;;;2.20;;
12567;SDS011;6349;50.904;6.136;2023-04-15T00:33:26;2.93;;;2.30;;
12567;SDS011;6349;50.904;6.136;2023-04-15T00:35:28;3.50;;;2.20;;
12567;SDS011;6349;50.904;6.136;2023-04-15T00:37:28;4.83;;;2.43;;
12567;SDS011;6349;50.904;6.136;2023-04-15T00:39:29;4.60;;;2.23;;
12567;SDS011;6349;50.904;6.136;2023-04-15T00:41:30;3.30;;;2.07;;
12567;SDS011;6349;50.904;6.136;2023-04-15T00:43:30;3.73;;;2.33;;
12567;SDS011;6349;50.904;6.136;2023-04-15T00:45:32;3.10;;;2.10;;
12567;SDS011;6349;50.904;6.136;2023-04-15T00:47:33;4.23;;;2.37;;
12567;SDS011;6349;50.904;6.136;2023-04-15T00:49:37;5.27;;;2.47;;
12567;SDS011;6349;50.904;6.136;2023-04-15T00:51:39;2.70;;;1.90;;
12567;SDS011;6349;50.904;6.136;2023-04-15T00:53:39;3.53;;;2.40;;
12567;SDS011;6349;50.904;6.136;2023-04-15T00:55:40;5.87;;;2.47;;
12567;SDS011;6349;50.904;6.136;2023-04-15T00:57:41;3.17;;;1.90;;
12567;SDS011;6349;50.904;6.136;2023-04-15T00:59:43;3.87;;;1.93;;
12567;SDS011;6349;50.904;6.136;2023-04-15T01:01:45;3.70;;;1.97;;
12567;SDS011;6349;50.904;6.136;2023-04-15T01:03:48;2.73;;;1.80;;
12567;SDS011;6349;50.904;6.136;2023-04-15T01:05:51;3.87;;;2.27;;
12567;SDS011;6349;50.904;6.136;2023-04-15T01:07:58;3.00;;;1.83;;
12567;SDS011;6349;50.904;6.136;2023-04-15T01:10:02;2.27;;;1.77;;
12567;SDS011;6349;50.904;6.136;2023-04-15T01:12:05;2.87;;;1.80;;
12567;SDS011;6349;50.904;6.136;2023-04-15T01:14:07;2.67;;;1.80;;
12567;SDS011;6349;50.904;6.136;2023-04-15T01:16:09;3.47;;;2.07;;
12567;SDS011;6349;50.904;6.136;2023-04-15T01:18:12;4.70;;;2.30;;
12567;SDS011;6349;50.904;6.136;2023-04-15T01:20:14;2.53;;;1.77;;
12567;SDS011;6349;50.904;6.136;2023-04-15T01:22:17;4.17;;;2.00;;
12567;SDS011;6349;50.904;6.136;2023-04-15T01:24:18;2.83;;;1.90;;
12567;SDS011;6349;50.904;6.136;2023-04-15T01:26:21;4.00;;;2.00;;
12567;SDS011;6349;50.904;6.136;2023-04-15T01:28:23;3.50;;;2.07;;
12567;SDS011;6349;50.904;6.136;2023-04-15T01:30:25;3.03;;;2.07;;
12567;SDS011;6349;50.904;6.136;2023-04-15T01:32:26;3.70;;;2.10;;
12567;SDS011;6349;50.904;6.136;2023-04-15T01:34:27;2.30;;;1.80;;
12567;SDS011;6349;50.904;6.136;2023-04-15T01:36:27;2.17;;;1.80;;
12567;SDS011;6349;50.904;6.136;2023-04-15T01:38:28;1.60;;;1.50;;
12567;SDS011;6349;50.904;6.136;2023-04-15T01:40:31;3.30;;;1.87;;
12567;SDS011;6349;50.904;6.136;2023-04-15T01:42:33;2.43;;;1.60;;
12567;SDS011;6349;50.904;6.136;2023-04-15T01:44:37;2.47;;;1.80;;
12567;SDS011;6349;50.904;6.136;2023-04-15T01:46:38;3.23;;;1.80;;
12567;SDS011;6349;50.904;6.136;2023-04-15T01:48:39;3.77;;;1.80;;
12567;SDS011;6349;50.904;6.136;2023-04-15T01:50:41;3.50;;;1.80;;
12567;SDS011;6349;50.904;6.136;2023-04-15T01:52:42;3.93;;;2.10;;
12567;SDS011;6349;50.904;6.136;2023-04-15T01:54:44;4.33;;;1.93;;
12567;SDS011;6349;50.904;6.136;2023-04-15T01:56:46;2.93;;;2.03;;
12567;SDS011;6349;50.904;6.136;2023-04-15T01:58:48;3.30;;;2.00;;
12567;SDS011;6349;50.904;6.136;2023-04-15T02:00:50;2.23;;;1.50;;
12567;SDS011;6349;50.904;6.136;2023-04-15T02:02:52;3.40;;;1.73;;
12567;SDS011;6349;50.904;6.136;2023-04-15T02:04:54;2.77;;;1.50;;
12567;SDS011;6349;50.904;6.136;2023-04-15T02:06:54;4.33;;;1.87;;
12567;SDS011;6349;50.904;6.136;2023-04-15T02:08:55;3.13;;;1.83;;
12567;SDS011;6349;50.904;6.136;2023-04-15T02:10:57;4.10;;;1.83;;
12567;SDS011;6349;50.904;6.136;2023-04-15T02:12:58;3.00;;;1.70;;
12567;SDS011;6349;50.904;6.136;2023-04-15T02:14:58;2.73;;;1.80;;
12567;SDS011;6349;50.904;6.136;2023-04-15T02:16:59;2.27;;;1.70;;
12567;SDS011;6349;50.904;6.136;2023-04-15T02:19:06;4.23;;;2.00;;
12567;SDS011;6349;50.904;6.136;2023-04-15T02:21:07;2.67;;;1.60;;
12567;SDS011;6349;50.904;6.136;2023-04-15T02:23:09;4.33;;;1.87;;
12567;SDS011;6349;50.904;6.136;2023-04-15T02:25:11;2.90;;;2.13;;
12567;SDS011;6349;50.904;6.136;2023-04-15T02:27:16;4.03;;;2.17;;
12567;SDS011;6349;50.904;6.136;2023-04-15T02:29:18;4.10;;;2.30;;
12567;SDS011;6349;50.904;6.136;2023-04-15T02:31:20;4.40;;;2.40;;
12567;SDS011;6349;50.904;6.136;2023-04-15T02:33:22;4.73;;;2.50;;
12567;SDS011;6349;50.904;6.136;2023-04-15T02:35:24;4.93;;;2.63;;
12567;SDS011;6349;50.904;6.136;2023-04-15T02:37:25;6.50;;;3.00;;
12567;SDS011;6349;50.904;6.136;2023-04-15T02:39:27;5.10;;;2.87;;
12567;SDS011;6349;50.904;6.136;2023-04-15T02:41:29;4.73;;;2.43;;
12567;SDS011;6349;50.904;6.136;2023-04-15T02:43:30;5.60;;;2.80;;
12567;SDS011;6349;50.904;6.136;2023-04-15T02:45:31;5.60;;;2.67;;
12567;SDS011;6349;50.904;6.136;2023-04-15T02:47:33;3.40;;;2.40;;
12567;SDS011;6349;50.904;6.136;2023-04-15T02:49:36;6.80;;;2.67;;
12567;SDS011;6349;50.904;6.136;2023-04-15T02:51:37;3.60;;;2.47;;
12567;SDS011;6349;50.904;6.136;2023-04-15T02:53:38;4.73;;;2.63;;
12567;SDS011;6349;50.904;6.136;2023-04-15T02:55:39;5.03;;;3.17;;
12567;SDS011;6349;50.904;6.136;2023-04-15T02:57:40;5.13;;;3.10;;
12567;SDS011;6349;50.904;6.136;2023-04-15T02:59:42;6.90;;;2.87;;
12567;SDS011;6349;50.904;6.136;2023-04-15T03:01:43;6.37;;;3.50;;
12567;SDS011;6349;50.904;6.136;2023-04-15T03:03:45;8.03;;;3.63;;
12567;SDS011;6349;50.904;6.136;2023-04-15T03:05:47;7.73;;;3.30;;
12567;SDS011;6349;50.904;6.136;2023-04-15T03:07:49;5.60;;;2.83;;
12567;SDS011;6349;50.904;6.136;2023-04-15T03:09:52;5.37;;;2.93;;
12567;SDS011;6349;50.904;6.136;2023-04-15T03:11:54;7.07;;;2.93;;
12567;SDS011;6349;50.904;6.136;2023-04-15T03:13:57;6.80;;;2.70;;
12567;SDS011;6349;50.904;6.136;2023-04-15T03:15:59;4.10;;;2.60;;
12567;SDS011;6349;50.904;6.136;2023-04-15T03:18:01;4.80;;;2.53;;
12567;SDS011;6349;50.904;6.136;2023-04-15T03:20:03;7.23;;;2.90;;
12567;SDS011;6349;50.904;6.136;2023-04-15T03:22:06;4.97;;;2.60;;
12567;SDS011;6349;50.904;6.136;2023-04-15T03:24:08;5.00;;;2.70;;
12567;SDS011;6349;50.904;6.136;2023-04-15T03:26:10;5.80;;;2.90;;
12567;SDS011;6349;50.904;6.136;2023-04-15T03:28:32;5.57;;;2.77;;
12567;SDS011;6349;50.904;6.136;2023-04-15T03:30:35;4.07;;;2.60;;
12567;SDS011;6349;50.904;6.136;2023-04-15T03:32:36;7.83;;;3.00;;
12567;SDS011;6349;50.904;6.136;2023-04-15T03:34:37;4.17;;;2.80;;
12567;SDS011;6349;50.904;6.136;2023-04-15T03:36:38;6.23;;;3.00;;
12567;SDS011;6349;50.904;6.136;2023-04-15T03:38:39;6.80;;;2.90;;
12567;SDS011;6349;50.904;6.136;2023-04-15T03:40:40;4.70;;;2.50;;
12567;SDS011;6349;50.904;6.136;2023-04-15T03:42:43;3.70;;;2.53;;
12567;SDS011;6349;50.904;6.136;2023-04-15T03:44:45;6.00;;;2.93;;
12567;SDS011;6349;50.904;6.136;2023-04-15T03:46:47;5.17;;;2.70;;
12567;SDS011;6349;50.904;6.136;2023-04-15T03:48:48;5.63;;;2.70;;
12567;SDS011;6349;50.904;6.136;2023-04-15T03:50:51;5.10;;;2.60;;
12567;SDS011;6349;50.904;6.136;2023-04-15T03:52:51;6.90;;;2.80;;
12567;SDS011;6349;50.904;6.136;2023-04-15T03:54:52;4.30;;;2.43;;
12567;SDS011;6349;50.904;6.136;2023-04-15T03:56:54;5.43;;;2.80;;
12567;SDS011;6349;50.904;6.136;2023-04-15T03:58:54;5.87;;;2.70;;
12567;SDS011;6349;50.904;6.136;2023-04-15T04:00:56;4.37;;;2.37;;
12567;SDS011;6349;50.904;6.136;2023-04-15T04:02:58;7.13;;;2.60;;
12567;SDS011;6349;50.904;6.136;2023-04-15T04:05:00;4.40;;;2.50;;
12567;SDS011;6349;50.904;6.136;2023-04-15T04:07:01;6.53;;;2.70;;
12567;SDS011;6349;50.904;6.136;2023-04-15T04:09:03;5.13;;;2.80;;
12567;SDS011;6349;50.904;6.136;2023-04-15T04:11:05;5.27;;;2.50;;
12567;SDS011;6349;50.904;6.136;2023-04-15T04:13:07;4.87;;;2.57;;
12567;SDS011;6349;50.904;6.136;2023-04-15T04:15:08;5.53;;;2.73;;
12567;SDS011;6349;50.904;6.136;2023-04-15T04:17:10;5.70;;;2.40;;
12567;SDS011;6349;50.904;6.136;2023-04-15T04:19:12;5.23;;;2.40;;
12567;SDS011;6349;50.904;6.136;2023-04-15T04:21:15;4.47;;;2.17;;
12567;SDS011;6349;50.904;6.136;2023-04-15T04:23:17;4.03;;;2.40;;
12567;SDS011;6349;50.904;6.136;2023-04-15T04:25:19;3.23;;;2.37;;
12567;SDS011;6349;50.904;6.136;2023-04-15T04:27:20;4.37;;;2.20;;
12567;SDS011;6349;50.904;6.136;2023-04-15T04:29:22;4.10;;;2.13;;
12567;SDS011;6349;50.904;6.136;2023-04-15T04:31:24;4.33;;;2.23;;
12567;SDS011;6349;50.904;6.136;2023-04-15T04:33:26;3.90;;;2.10;;
12567;SDS011;6349;50.904;6.136;2023-04-15T04:35:27;5.00;;;2.00;;
12567;SDS011;6349;50.904;6.136;2023-04-15T04:37:29;5.33;;;2.10;;
12567;SDS011;6349;50.904;6.136;2023-04-15T04:39:29;4.37;;;2.17;;
12567;SDS011;6349;50.904;6.136;2023-04-15T04:41:32;5.90;;;2.43;;
12567;SDS011;6349;50.904;6.136;2023-04-15T04:43:33;3.00;;;2.17;;
12567;SDS011;6349;50.904;6.136;2023-04-15T04:45:34;4.53;;;2.33;;
12567;SDS011;6349;50.904;6.136;2023-04-15T04:47:35;3.87;;;2.30;;
12567;SDS011;6349;50.904;6.136;2023-04-15T04:49:37;3.60;;;2.10;;
12567;SDS011;6349;50.904;6.136;2023-04-15T04:51:37;4.17;;;2.40;;
12567;SDS011;6349;50.904;6.136;2023-04-15T04:53:39;4.10;;;2.10;;
12567;SDS011;6349;50.904;6.136;2023-04-15T04:55:41;4.77;;;2.30;;
12567;SDS011;6349;50.904;6.136;2023-04-15T04:57:42;4.07;;;2.00;;
12567;SDS011;6349;50.904;6.136;2023-04-15T04:59:44;3.93;;;1.83;;
12567;SDS011;6349;50.904;6.136;2023-04-15T05:01:46;3.77;;;2.10;;
12567;SDS011;6349;50.904;6.136;2023-04-15T05:03:48;3.83;;;2.13;;
12567;SDS011;6349;50.904;6.136;2023-04-15T05:05:50;3.13;;;2.00;;
12567;SDS011;6349;50.904;6.136;2023-04-15T05:07:52;4.73;;;2.00;;
12567;SDS011;6349;50.904;6.136;2023-04-15T05:09:53;3.40;;;2.10;;
12567;SDS011;6349;50.904;6.136;2023-04-15T05:11:54;4.23;;;2.40;;
12567;SDS011;6349;50.904;6.136;2023-04-15T05:13:56;6.77;;;2.63;;
12567;SDS011;6349;50.904;6.136;2023-04-15T05:16:00;4.37;;;2.60;;
12567;SDS011;6349;50.904;6.136;2023-04-15T05:18:02;4.90;;;2.60;;
12567;SDS011;6349;50.904;6.136;2023-04-15T05:20:03;7.87;;;2.73;;
12567;SDS011;6349;50.904;6.136;2023-04-15T05:22:06;6.67;;;2.67;;
12567;SDS011;6349;50.904;6.136;2023-04-15T05:24:07;6.67;;;2.57;;
12567;SDS011;6349;50.904;6.136;2023-04-15T05:26:09;4.00;;;2.40;;
12567;SDS011;6349;50.904;6.136;2023-04-15T05:28:09;4.53;;;2.90;;
12567;SDS011;6349;50.904;6.136;2023-04-15T05:30:11;5.47;;;2.57;;
12567;SDS011;6349;50.904;6.136;2023-04-15T05:32:13;2.97;;;2.53;;
12567;SDS011;6349;50.904;6.136;2023-04-15T05:34:15;6.83;;;2.53;;
12567;SDS011;6349;50.904;6.136;2023-04-15T05:36:17;5.67;;;3.00;;
12567;SDS011;6349;50.904;6.136;2023-04-15T05:38:21;5.53;;;2.60;;
12567;SDS011;6349;50.904;6.136;2023-04-15T05:40:24;5.70;;;2.40;;
12567;SDS011;6349;50.904;6.136;2023-04-15T05:42:26;5.83;;;2.73;;
12567;SDS011;6349;50.904;6.136;2023-04-15T05:44:27;6.87;;;2.77;;
12567;SDS011;6349;50.904;6.136;2023-04-15T05:46:28;6.67;;;2.43;;
12567;SDS011;6349;50.904;6.136;2023-04-15T05:48:31;3.70;;;2.10;;
12567;SDS011;6349;50.904;6.136;2023-04-15T05:50:33;6.97;;;2.70;;
12567;SDS011;6349;50.904;6.136;2023-04-15T05:52:36;4.10;;;2.63;;
12567;SDS011;6349;50.904;6.136;2023-04-15T05:54:38;3.53;;;2.23;;
12567;SDS011;6349;50.904;6.136;2023-04-15T05:56:40;3.67;;;2.40;;
12567;SDS011;6349;50.904;6.136;2023-04-15T05:58:41;5.37;;;2.33;;
12567;SDS011;6349;50.904;6.136;2023-04-15T06:00:43;7.63;;;2.40;;
12567;SDS011;6349;50.904;6.136;2023-04-15T06:02:46;5.40;;;2.13;;
12567;SDS011;6349;50.904;6.136;2023-04-15T06:04:49;4.43;;;2.30;;
12567;SDS011;6349;50.904;6.136;2023-04-15T06:06:50;3.80;;;2.17;;
12567;SDS011;6349;50.904;6.136;2023-04-15T06:08:52;6.87;;;2.53;;
12567;SDS011;6349;50.904;6.136;2023-04-15T06:10:57;4.97;;;2.40;;
12567;SDS011;6349;50.904;6.136;2023-04-15T06:12:59;4.20;;;2.30;;
12567;SDS011;6349;50.904;6.136;2023-04-15T06:15:01;6.47;;;2.57;;
12567;SDS011;6349;50.904;6.136;2023-04-15T06:17:03;4.93;;;2.87;;
12567;SDS011;6349;50.904;6.136;2023-04-15T06:19:05;7.03;;;2.73;;
12567;SDS011;6349;50.904;6.136;2023-04-15T06:21:06;4.90;;;2.87;;
12567;SDS011;6349;50.904;6.136;2023-04-15T06:23:08;5.50;;;2.47;;
12567;SDS011;6349;50.904;6.136;2023-04-15T06:25:10;3.20;;;2.30;;
12567;SDS011;6349;50.904;6.136;2023-04-15T06:27:12;3.20;;;2.40;;
12567;SDS011;6349;50.904;6.136;2023-04-15T06:29:15;5.30;;;2.80;;
12567;SDS011;6349;50.904;6.136;2023-04-15T06:31:17;5.50;;;2.67;;
12567;SDS011;6349;50.904;6.136;2023-04-15T06:33:17;5.10;;;2.50;;
12567;SDS011;6349;50.904;6.136;2023-04-15T06:35:19;5.90;;;2.57;;
12567;SDS011;6349;50.904;6.136;2023-04-15T06:37:22;5.13;;;2.47;;
12567;SDS011;6349;50.904;6.136;2023-04-15T06:39:24;4.47;;;2.70;;
12567;SDS011;6349;50.904;6.136;2023-04-15T06:41:26;5.00;;;2.73;;
12567;SDS011;6349;50.904;6.136;2023-04-15T06:43:28;4.80;;;2.50;;
12567;SDS011;6349;50.904;6.136;2023-04-15T06:45:30;5.00;;;2.50;;
12567;SDS011;6349;50.904;6.136;2023-04-15T06:47:33;3.47;;;2.53;;
12567;SDS011;6349;50.904;6.136;2023-04-15T06:49:36;6.53;;;2.97;;
12567;SDS011;6349;50.904;6.136;2023-04-15T06:51:38;4.97;;;2.60;;
12567;SDS011;6349;50.904;6.136;2023-04-15T06:53:39;6.40;;;2.93;;
12567;SDS011;6349;50.904;6.136;2023-04-15T06:55:43;4.43;;;2.97;;
12567;SDS011;6349;50.904;6.136;2023-04-15T06:57:45;7.27;;;2.80;;
12567;SDS011;6349;50.904;6.136;2023-04-15T06:59:47;4.17;;;2.93;;
12567;SDS011;6349;50.904;6.136;2023-04-15T07:01:49;4.70;;;2.93;;
12567;SDS011;6349;50.904;6.136;2023-04-15T07:03:51;7.30;;;3.30;;
12567;SDS011;6349;50.904;6.136;2023-04-15T07:05:53;6.27;;;2.93;;
12567;SDS011;6349;50.904;6.136;2023-04-15T07:07:55;6.90;;;3.40;;
12567;SDS011;6349;50.904;6.136;2023-04-15T07:09:57;8.13;;;3.77;;
12567;SDS011;6349;50.904;6.136;2023-04-15T07:11:59;6.03;;;3.57;;
12567;SDS011;6349;50.904;6.136;2023-04-15T07:14:01;6.57;;;3.40;;
12567;SDS011;6349;50.904;6.136;2023-04-15T07:16:03;7.00;;;3.87;;
12567;SDS011;6349;50.904;6.136;2023-04-15T07:18:03;5.83;;;3.63;;
12567;SDS011;6349;50.904;6.136;2023-04-15T07:20:10;9.07;;;3.53;;
12567;SDS011;6349;50.904;6.136;2023-04-15T07:22:13;4.80;;;3.60;;
12567;SDS011;6349;50.904;6.136;2023-04-15T07:24:15;6.47;;;3.83;;
12567;SDS011;6349;50.904;6.136;2023-04-15T07:26:22;4.40;;;3.20;;
12567;SDS011;6349;50.904;6.136;2023-04-15T07:28:23;5.23;;;3.90;;
12567;SDS011;6349;50.904;6.136;2023-04-15T07:30:25;6.40;;;3.73;;
12567;SDS011;6349;50.904;6.136;2023-04-15T07:32:27;8.07;;;3.47;;
12567;SDS011;6349;50.904;6.136;2023-04-15T07:34:29;5.20;;;3.50;;
12567;SDS011;6349;50.904;6.136;2023-04-15T07:36:31;5.60;;;4.00;;
12567;SDS011;6349;50.904;6.136;2023-04-15T07:38:33;5.73;;;4.20;;
12567;SDS011;6349;50.904;6.136;2023-04-15T07:40:34;4.77;;;3.90;;
12567;SDS011;6349;50.904;6.136;2023-04-15T07:42:36;7.30;;;4.47;;
12567;SDS011;6349;50.904;6.136;2023-04-15T07:44:38;4.87;;;3.73;;
12567;SDS011;6349;50.904;6.136;2023-04-15T07:46:40;5.23;;;4.10;;
12567;SDS011;6349;50.904;6.136;2023-04-15T07:48:42;4.97;;;4.20;;
12567;SDS011;6349;50.904;6.136;2023-04-15T07:50:44;8.97;;;4.50;;
12567;SDS011;6349;50.904;6.136;2023-04-15T07:52:46;8.23;;;5.47;;
12567;SDS011;6349;50.904;6.136;2023-04-15T07:54:49;10.00;;;5.33;;
12567;SDS011;6349;50.904;6.136;2023-04-15T07:56:50;6.77;;;5.60;;
12567;SDS011;6349;50.904;6.136;2023-04-15T07:58:51;8.97;;;4.83;;
12567;SDS011;6349;50.904;6.136;2023-04-15T08:00:53;8.47;;;6.07;;
12567;SDS011;6349;50.904;6.136;2023-04-15T08:02:55;5.73;;;5.20;;
12567;SDS011;6349;50.904;6.136;2023-04-15T08:04:59;7.13;;;4.93;;
12567;SDS011;6349;50.904;6.136;2023-04-15T08:07:03;6.57;;;5.33;;
12567;SDS011;6349;50.904;6.136;2023-04-15T08:09:06;5.73;;;4.80;;
12567;SDS011;6349;50.904;6.136;2023-04-15T08:11:10;7.13;;;6.43;;
12567;SDS011;6349;50.904;6.136;2023-04-15T08:13:11;6.10;;;5.43;;
12567;SDS011;6349;50.904;6.136;2023-04-15T08:15:13;6.80;;;5.67;;
12567;SDS011;6349;50.904;6.136;2023-04-15T08:17:15;7.87;;;6.47;;
12567;SDS011;6349;50.904;6.136;2023-04-15T08:19:17;9.00;;;6.43;;
12567;SDS011;6349;50.904;6.136;2023-04-15T08:21:19;7.47;;;6.70;;
12567;SDS011;6349;50.904;6.136;2023-04-15T08:23:21;7.20;;;6.40;;
12567;SDS011;6349;50.904;6.136;2023-04-15T08:25:23;7.10;;;6.40;;
12567;SDS011;6349;50.904;6.136;2023-04-15T08:27:25;7.60;;;6.47;;
12567;SDS011;6349;50.904;6.136;2023-04-15T08:29:27;7.33;;;6.13;;
12567;SDS011;6349;50.904;6.136;2023-04-15T08:31:28;7.63;;;6.50;;
12567;SDS011;6349;50.904;6.136;2023-04-15T08:33:30;6.70;;;6.00;;
12567;SDS011;6349;50.904;6.136;2023-04-15T08:35:33;7.47;;;6.70;;
12567;SDS011;6349;50.904;6.136;2023-04-15T08:37:35;7.13;;;6.43;;
12567;SDS011;6349;50.904;6.136;2023-04-15T08:39:37;6.90;;;6.30;;
12567;SDS011;6349;50.904;6.136;2023-04-15T08:41:45;7.30;;;6.60;;
12567;SDS011;6349;50.904;6.136;2023-04-15T08:43:51;6.80;;;6.20;;
12567;SDS011;6349;50.904;6.136;2023-04-15T08:45:55;6.83;;;6.23;;
12567;SDS011;6349;50.904;6.136;2023-04-15T08:48:00;6.90;;;6.30;;
12567;SDS011;6349;50.904;6.136;2023-04-15T08:50:14;6.27;;;5.67;;
12567;SDS011;6349;50.904;6.136;2023-04-15T08:52:18;6.40;;;5.67;;
12567;SDS011;6349;50.904;6.136;2023-04-15T08:54:21;6.70;;;6.00;;
12567;SDS011;6349;50.904;6.136;2023-04-15T08:56:23;6.00;;;5.40;;
12567;SDS011;6349;50.904;6.136;2023-04-15T08:58:30;6.37;;;5.60;;
12567;SDS011;6349;50.904;6.136;2023-04-15T09:00:32;6.23;;;5.43;;
12567;SDS011;6349;50.904;6.136;2023-04-15T09:02:33;5.83;;;5.33;;
12567;SDS011;6349;50.904;6.136;2023-04-15T09:04:37;5.73;;;5.07;;
12567;SDS011;6349;50.904;6.136;2023-04-15T09:06:39;5.37;;;4.87;;
12567;SDS011;6349;50.904;6.136;2023-04-15T09:08:42;4.80;;;4.40;;
12567;SDS011;6349;50.904;6.136;2023-04-15T09:10:44;4.90;;;4.40;;
12567;SDS011;6349;50.904;6.136;2023-04-15T09:12:45;4.80;;;4.30;;
12567;SDS011;6349;50.904;6.136;2023-04-15T09:14:48;4.63;;;4.20;;
12567;SDS011;6349;50.904;6.136;2023-04-15T09:17:00;4.80;;;4.30;;
12567;SDS011;6349;50.904;6.136;2023-04-15T09:19:19;4.47;;;4.00;;
12567;SDS011;6349;50.904;6.136;2023-04-15T09:21:23;4.73;;;4.23;;
12567;SDS011;6349;50.904;6.136;2023-04-15T09:23:25;6.60;;;4.53;;
12567;SDS011;6349;50.904;6.136;2023-04-15T09:25:29;5.03;;;4.43;;
12567;SDS011;6349;50.904;6.136;2023-04-15T09:27:34;4.53;;;4.13;;
12567;SDS011;6349;50.904;6.136;2023-04-15T09:29:37;4.63;;;4.20;;
12567;SDS011;6349;50.904;6.136;2023-04-15T09:31:42;4.97;;;4.47;;
12567;SDS011;6349;50.904;6.136;2023-04-15T09:33:54;5.43;;;4.67;;
12567;SDS011;6349;50.904;6.136;2023-04-15T09:36:03;6.23;;;4.80;;
12567;SDS011;6349;50.904;6.136;2023-04-15T09:38:07;5.57;;;5.00;;
12567;SDS011;6349;50.904;6.136;2023-04-15T09:40:10;5.60;;;5.10;;
12567;SDS011;6349;50.904;6.136;2023-04-15T09:42:12;9.23;;;6.10;;
12567;SDS011;6349;50.904;6.136;2023-04-15T09:44:25;6.70;;;5.80;;
12567;SDS011;6349;50.904;6.136;2023-04-15T09:46:42;7.17;;;5.53;;
12567;SDS011;6349;50.904;6.136;2023-04-15T09:48:45;6.87;;;5.90;;
12567;SDS011;6349;50.904;6.136;2023-04-15T09:50:48;7.20;;;5.77;;
12567;SDS011;6349;50.904;6.136;2023-04-15T09:52:53;6.07;;;5.00;;
12567;SDS011;6349;50.904;6.136;2023-04-15T09:54:59;5.50;;;5.00;;
12567;SDS011;6349;50.904;6.136;2023-04-15T09:57:09;6.70;;;4.93;;
12567;SDS011;6349;50.904;6.136;2023-04-15T09:59:12;5.23;;;4.70;;
12567;SDS011;6349;50.904;6.136;2023-04-15T10:01:14;7.13;;;5.00;;
12567;SDS011;6349;50.904;6.136;2023-04-15T10:03:19;5.27;;;4.77;;
12567;SDS011;6349;50.904;6.136;2023-04-15T10:05:30;5.10;;;4.57;;
12567;SDS011;6349;50.904;6.136;2023-04-15T10:07:32;4.67;;;4.07;;
12567;SDS011;6349;50.904;6.136;2023-04-15T10:09:35;4.27;;;3.87;;
12567;SDS011;6349;50.904;6.136;2023-04-15T10:11:39;4.30;;;3.90;;
12567;SDS011;6349;50.904;6.136;2023-04-15T10:13:45;5.20;;;4.00;;
12567;SDS011;6349;50.904;6.136;2023-04-15T10:15:58;5.00;;;4.50;;
12567;SDS011;6349;50.904;6.136;2023-04-15T10:18:04;4.83;;;4.33;;
12567;SDS011;6349;50.904;6.136;2023-04-15T10:20:08;5.03;;;4.63;;
12567;SDS011;6349;50.904;6.136;2023-04-15T10:22:13;5.17;;;4.37;;
12567;SDS011;6349;50.904;6.136;2023-04-15T10:24:15;5.20;;;4.10;;
12567;SDS011;6349;50.904;6.136;2023-04-15T10:26:18;5.37;;;4.30;;
12567;SDS011;6349;50.904;6.136;2023-04-15T10:28:21;5.13;;;3.83;;
12567;SDS011;6349;50.904;6.136;2023-04-15T10:30:23;4.40;;;4.00;;
12567;SDS011;6349;50.904;6.136;2023-04-15T10:32:25;5.70;;;3.77;;
12567;SDS011;6349;50.904;6.136;2023-04-15T10:34:27;4.60;;;3.53;;
12567;SDS011;6349;50.904;6.136;2023-04-15T10:36:31;3.70;;;3.17;;
12567;SDS011;6349;50.904;6.136;2023-04-15T10:38:39;3.10;;;2.90;;
12567;SDS011;6349;50.904;6.136;2023-04-15T10:40:46;3.70;;;3.27;;
12567;SDS011;6349;50.904;6.136;2023-04-15T10:42:47;3.87;;;3.57;;
12567;SDS011;6349;50.904;6.136;2023-04-15T10:44:50;4.43;;;3.40;;
12567;SDS011;6349;50.904;6.136;2023-04-15T10:46:57;4.20;;;3.30;;
12567;SDS011;6349;50.904;6.136;2023-04-15T10:48:59;3.43;;;3.13;;
12567;SDS011;6349;50.904;6.136;2023-04-15T10:51:15;3.33;;;2.60;;
12567;SDS011;6349;50.904;6.136;2023-04-15T10:53:25;2.77;;;2.57;;
12567;SDS011;6349;50.904;6.136;2023-04-15T10:55:30;2.87;;;2.67;;
12567;SDS011;6349;50.904;6.136;2023-04-15T10:57:37;2.87;;;2.63;;
12567;SDS011;6349;50.904;6.136;2023-04-15T11:00:01;2.83;;;2.63;;
12567;SDS011;6349;50.904;6.136;2023-04-15T11:02:04;4.73;;;3.30;;
12567;SDS011;6349;50.904;6.136;2023-04-15T11:04:08;4.37;;;3.07;;
12567;SDS011;6349;50.904;6.136;2023-04-15T11:06:08;4.17;;;3.27;;
12567;SDS011;6349;50.904;6.136;2023-04-15T11:08:11;3.70;;;3.03;;
12567;SDS011;6349;50.904;6.136;2023-04-15T11:12:14;3.57;;;3.20;;
12567;SDS011;6349;50.904;6.136;2023-04-15T11:14:16;3.97;;;3.20;;
12567;SDS011;6349;50.904;6.136;2023-04-15T11:16:18;3.63;;;3.30;;
12567;SDS011;6349;50.904;6.136;2023-04-15T11:18:21;4.43;;;3.10;;
12567;SDS011;6349;50.904;6.136;2023-04-15T11:20:28;4.53;;;3.40;;
12567;SDS011;6349;50.904;6.136;2023-04-15T11:22:30;2.87;;;2.57;;
12567;SDS011;6349;50.904;6.136;2023-04-15T11:24:32;2.40;;;2.20;;
12567;SDS011;6349;50.904;6.136;2023-04-15T11:26:33;2.40;;;2.10;;
12567;SDS011;6349;50.904;6.136;2023-04-15T11:28:35;2.30;;;2.10;;
12567;SDS011;6349;50.904;6.136;2023-04-15T11:30:38;2.40;;;2.20;;
12567;SDS011;6349;50.904;6.136;2023-04-15T11:32:45;2.47;;;2.27;;
12567;SDS011;6349;50.904;6.136;2023-04-15T11:34:47;1.87;;;1.77;;
12567;SDS011;6349;50.904;6.136;2023-04-15T11:36:52;4.47;;;2.43;;
12567;SDS011;6349;50.904;6.136;2023-04-15T11:38:59;2.60;;;2.40;;
12567;SDS011;6349;50.904;6.136;2023-04-15T11:41:01;2.83;;;2.00;;
12567;SDS011;6349;50.904;6.136;2023-04-15T11:45:10;2.50;;;2.30;;
12567;SDS011;6349;50.904;6.136;2023-04-15T11:47:23;4.27;;;2.63;;
12567;SDS011;6349;50.904;6.136;2023-04-15T11:49:30;3.10;;;2.80;;
12567;SDS011;6349;50.904;6.136;2023-04-15T11:51:34;3.30;;;3.00;;
12567;SDS011;6349;50.904;6.136;2023-04-15T11:53:46;3.00;;;2.70;;
12567;SDS011;6349;50.904;6.136;2023-04-15T11:55:49;3.27;;;2.97;;
12567;SDS011;6349;50.904;6.136;2023-04-15T11:58:07;4.40;;;2.90;;
12567;SDS011;6349;50.904;6.136;2023-04-15T12:00:18;4.77;;;3.10;;
12567;SDS011;6349;50.904;6.136;2023-04-15T12:02:21;4.47;;;2.60;;
12567;SDS011;6349;50.904;6.136;2023-04-15T12:04:32;2.60;;;2.40;;
12567;SDS011;6349;50.904;6.136;2023-04-15T12:06:34;3.10;;;2.80;;
12567;SDS011;6349;50.904;6.136;2023-04-15T12:11:04;2.70;;;2.50;;
12567;SDS011;6349;50.904;6.136;2023-04-15T12:13:06;2.73;;;2.47;;
12567;SDS011;6349;50.904;6.136;2023-04-15T12:15:10;3.20;;;2.40;;
12567;SDS011;6349;50.904;6.136;2023-04-15T12:17:12;2.57;;;2.37;;
12567;SDS011;6349;50.904;6.136;2023-04-15T12:19:14;2.80;;;2.60;;
12567;SDS011;6349;50.904;6.136;2023-04-15T12:21:32;3.40;;;3.10;;
12567;SDS011;6349;50.904;6.136;2023-04-15T12:23:36;4.73;;;3.00;;
12567;SDS011;6349;50.904;6.136;2023-04-15T12:25:38;2.93;;;2.73;;
12567;SDS011;6349;50.904;6.136;2023-04-15T12:27:40;3.00;;;2.70;;
12567;SDS011;6349;50.904;6.136;2023-04-15T12:29:42;3.70;;;2.80;;
12567;SDS011;6349;50.904;6.136;2023-04-15T12:31:51;2.43;;;2.23;;
12567;SDS011;6349;50.904;6.136;2023-04-15T12:34:13;2.43;;;2.23;;
12567;SDS011;6349;50.904;6.136;2023-04-15T12:36:15;2.47;;;2.27;;
12567;SDS011;6349;50.904;6.136;2023-04-15T12:38:17;2.27;;;2.07;;